Aviation Digital Data Service (ADDS)

Output produced by METARs form (0241 UTC 22 July 2017)
found at http://www.aviationweather.gov/adds/metars/
 
LMML 220215Z 31002KT CAVOK 22/21 Q1015 NOSIG
TAF LMML 212300Z 2200/2224 20008KT CAVOK